Time;durP1;ratioP1;P1;durP2;ratioP2;P2;SDS_P1;SDS_P2;PMS_P1;PMS_P2;Temp;Humidity;BMP_temperature;BMP_pressure;BME280_temperature;BME280_humidity;BME280_pressure;Samples;Min_cycle;Max_cycle;Signal;HPM_P1;HPM_P2
2022/05/29 00:02:24;;;;;;;1.80;0.90;;;;;;;;;;5006733;28;20220;-67
2022/05/29 00:04:57;;;;;;;1.53;0.80;;;;;;;;;;5001794;28;20361;-67
2022/05/29 00:07:27;;;;;;;1.07;0.70;;;;;;;;;;5004745;28;20254;-67
2022/05/29 00:10:00;;;;;;;1.93;0.83;;;;;;;;;;4999912;28;20207;-67
2022/05/29 00:12:31;;;;;;;0.93;0.53;;;;;;;;;;5007938;28;20368;-67
2022/05/29 00:15:04;;;;;;;0.97;0.70;;;;;;;;;;5003305;28;20203;-67
2022/05/29 00:17:33;;;;;;;1.70;0.90;;;;;;;;;;5006861;28;20207;-67
2022/05/29 00:20:01;;;;;;;1.07;0.60;;;;;;;;;;5006579;28;20273;-67
2022/05/29 00:22:30;;;;;;;1.20;0.60;;;;;;;;;;5006392;28;20196;-67
2022/05/29 00:24:58;;;;;;;1.87;0.93;;;;;;;;;;5001844;28;20265;-70
2022/05/29 00:27:25;;;;;;;0.90;0.60;;;;;;;;;;5004505;28;20211;-67
2022/05/29 00:29:53;;;;;;;0.80;0.63;;;;;;;;;;5005650;28;20342;-68
2022/05/29 00:32:20;;;;;;;1.50;0.70;;;;;;;;;;5006302;28;20199;-67
2022/05/29 00:34:47;;;;;;;1.13;0.60;;;;;;;;;;5005775;28;20231;-67
2022/05/29 00:37:15;;;;;;;1.37;0.80;;;;;;;;;;5000936;28;20200;-67
2022/05/29 00:39:42;;;;;;;1.17;0.70;;;;;;;;;;4994878;28;20257;-67
2022/05/29 00:42:11;;;;;;;1.17;0.77;;;;;;;;;;5004894;28;20210;-67
2022/05/29 00:44:39;;;;;;;1.27;0.70;;;;;;;;;;5003519;28;20269;-68
2022/05/29 00:47:18;;;;;;;1.70;0.90;;;;;;;;;;5004088;28;20203;-67
2022/05/29 00:49:49;;;;;;;0.83;0.67;;;;;;;;;;5004380;28;20202;-68
2022/05/29 00:52:21;;;;;;;0.57;0.53;;;;;;;;;;4996986;28;20222;-67
2022/05/29 00:54:56;;;;;;;1.43;0.70;;;;;;;;;;5004170;28;20656;-67
2022/05/29 00:57:56;;;;;;;1.30;0.80;;;;;;;;;;5001811;28;20208;-68
2022/05/29 01:00:28;;;;;;;1.47;0.60;;;;;;;;;;4998057;28;20231;-68
2022/05/29 01:02:59;;;;;;;0.77;0.60;;;;;;;;;;5004616;28;20532;-68
2022/05/29 01:05:33;;;;;;;1.17;0.87;;;;;;;;;;5000803;28;20269;-68
2022/05/29 01:08:15;;;;;;;0.83;0.60;;;;;;;;;;5006291;28;20537;-67
2022/05/29 01:10:55;;;;;;;1.43;0.80;;;;;;;;;;5001581;28;20568;-67
2022/05/29 01:13:30;;;;;;;1.47;0.80;;;;;;;;;;5007703;28;20211;-67
2022/05/29 01:16:09;;;;;;;1.13;0.87;;;;;;;;;;5004900;28;20638;-67
2022/05/29 01:18:58;;;;;;;1.47;0.60;;;;;;;;;;5007968;28;20231;-67
2022/05/29 01:21:44;;;;;;;0.93;0.60;;;;;;;;;;5009029;28;20216;-67
2022/05/29 01:24:14;;;;;;;1.07;0.70;;;;;;;;;;5008206;28;20529;-67
2022/05/29 01:27:03;;;;;;;2.30;0.80;;;;;;;;;;5007384;28;20539;-67
2022/05/29 01:29:38;;;;;;;2.63;0.80;;;;;;;;;;5003699;28;20188;-67
2022/05/29 01:32:12;;;;;;;1.50;0.73;;;;;;;;;;5009631;28;20202;-67
2022/05/29 01:34:46;;;;;;;1.60;0.67;;;;;;;;;;5005574;28;20286;-68
2022/05/29 01:37:26;;;;;;;1.20;0.70;;;;;;;;;;5003089;28;20258;-68
2022/05/29 01:39:53;;;;;;;1.20;0.70;;;;;;;;;;5004434;28;20793;-67
2022/05/29 01:42:26;;;;;;;1.00;0.60;;;;;;;;;;5008122;28;20199;-68
2022/05/29 01:44:58;;;;;;;2.53;0.73;;;;;;;;;;5005806;28;20215;-68
2022/05/29 01:47:27;;;;;;;1.00;0.70;;;;;;;;;;5007791;28;20207;-68
2022/05/29 01:49:59;;;;;;;1.17;0.77;;;;;;;;;;5007054;28;20204;-67
2022/05/29 01:52:28;;;;;;;1.53;0.90;;;;;;;;;;5004050;28;20215;-68
2022/05/29 01:55:03;;;;;;;0.90;0.70;;;;;;;;;;5008349;28;20297;-68
2022/05/29 01:57:32;;;;;;;1.17;0.77;;;;;;;;;;5007247;28;20192;-68
2022/05/29 02:00:05;;;;;;;1.30;0.90;;;;;;;;;;5005347;28;20380;-68
2022/05/29 02:02:35;;;;;;;1.00;0.67;;;;;;;;;;5006413;28;20207;-67
2022/05/29 02:05:05;;;;;;;1.60;0.90;;;;;;;;;;5002273;28;20274;-67
2022/05/29 02:07:49;;;;;;;0.87;0.50;;;;;;;;;;5001974;28;20199;-68
2022/05/29 02:10:35;;;;;;;1.17;0.60;;;;;;;;;;5006840;28;20214;-69
2022/05/29 02:13:02;;;;;;;0.93;0.60;;;;;;;;;;5003644;28;20192;-68
2022/05/29 02:15:42;;;;;;;1.30;0.60;;;;;;;;;;5001372;28;20240;-68
2022/05/29 02:18:11;;;;;;;1.23;0.73;;;;;;;;;;5006439;28;20199;-68
2022/05/29 02:20:43;;;;;;;0.90;0.70;;;;;;;;;;5007282;28;20257;-68
2022/05/29 02:23:14;;;;;;;0.87;0.43;;;;;;;;;;5003897;28;20290;-68
2022/05/29 02:25:42;;;;;;;1.20;0.70;;;;;;;;;;5006104;28;20192;-67
2022/05/29 02:28:11;;;;;;;1.40;0.70;;;;;;;;;;5004839;28;21290;-67
2022/05/29 02:30:41;;;;;;;0.87;0.70;;;;;;;;;;5004882;28;20196;-67
2022/05/29 02:33:17;;;;;;;1.40;0.80;;;;;;;;;;5004726;28;20253;-68
2022/05/29 02:35:51;;;;;;;1.83;0.70;;;;;;;;;;5004773;28;20277;-68
2022/05/29 02:38:30;;;;;;;1.73;0.70;;;;;;;;;;5007499;28;20207;-67
2022/05/29 02:41:03;;;;;;;1.87;0.80;;;;;;;;;;4997766;28;20216;-68
2022/05/29 02:43:36;;;;;;;1.03;0.63;;;;;;;;;;5005675;28;20226;-68
2022/05/29 02:46:10;;;;;;;1.13;0.70;;;;;;;;;;5002834;28;20226;-67
2022/05/29 02:48:55;;;;;;;0.90;0.50;;;;;;;;;;5007349;28;20196;-68
2022/05/29 02:51:22;;;;;;;0.83;0.70;;;;;;;;;;5002692;28;20307;-68
2022/05/29 02:53:49;;;;;;;2.30;0.83;;;;;;;;;;5006812;28;20221;-67
2022/05/29 02:56:16;;;;;;;1.63;0.70;;;;;;;;;;5006847;28;20274;-68
2022/05/29 02:58:45;;;;;;;1.20;0.73;;;;;;;;;;5006240;28;20191;-68
2022/05/29 03:01:30;;;;;;;1.67;0.80;;;;;;;;;;5002684;28;20235;-68
2022/05/29 03:04:15;;;;;;;1.93;0.80;;;;;;;;;;4999950;28;20200;-68
2022/05/29 03:06:53;;;;;;;0.90;0.67;;;;;;;;;;5000396;28;20196;-67
2022/05/29 03:09:29;;;;;;;1.20;0.80;;;;;;;;;;5002692;28;20198;-67
2022/05/29 03:11:56;;;;;;;1.03;0.73;;;;;;;;;;5003621;28;20203;-67
2022/05/29 03:14:42;;;;;;;1.93;0.77;;;;;;;;;;5005760;28;20258;-67
2022/05/29 03:17:29;;;;;;;1.30;0.80;;;;;;;;;;4999990;28;20218;-67
2022/05/29 03:20:15;;;;;;;1.47;0.80;;;;;;;;;;5004183;28;20640;-68
2022/05/29 03:22:42;;;;;;;0.97;0.87;;;;;;;;;;5004322;28;20212;-68
2022/05/29 03:25:15;;;;;;;1.70;0.90;;;;;;;;;;5004278;28;20199;-68
2022/05/29 03:27:51;;;;;;;0.77;0.60;;;;;;;;;;4998451;28;20707;-67
2022/05/29 03:30:29;;;;;;;1.90;0.80;;;;;;;;;;5006374;28;20199;-68
2022/05/29 03:32:58;;;;;;;0.87;0.70;;;;;;;;;;5005064;28;20210;-67
2022/05/29 03:35:32;;;;;;;1.27;0.70;;;;;;;;;;5006012;28;20235;-67
2022/05/29 03:38:09;;;;;;;2.20;0.83;;;;;;;;;;5005168;28;20238;-67
2022/05/29 03:40:41;;;;;;;1.47;0.80;;;;;;;;;;5003420;28;20688;-68
2022/05/29 03:43:11;;;;;;;1.77;0.80;;;;;;;;;;4999085;28;20262;-67
2022/05/29 03:45:43;;;;;;;0.90;0.80;;;;;;;;;;5003192;28;20199;-68
2022/05/29 03:48:15;;;;;;;2.00;0.70;;;;;;;;;;5003707;28;20207;-68
2022/05/29 03:50:45;;;;;;;1.77;0.80;;;;;;;;;;4998592;28;20397;-68
2022/05/29 03:53:14;;;;;;;1.57;0.70;;;;;;;;;;4999407;28;20219;-68
2022/05/29 03:55:45;;;;;;;1.47;0.87;;;;;;;;;;5004510;28;20327;-66
2022/05/29 03:58:22;;;;;;;1.23;0.80;;;;;;;;;;5007538;28;20210;-66
2022/05/29 04:00:53;;;;;;;1.40;0.70;;;;;;;;;;5011777;28;20338;-66
2022/05/29 04:03:21;;;;;;;1.70;0.90;;;;;;;;;;4999186;28;20560;-67
2022/05/29 04:05:55;;;;;;;1.27;0.67;;;;;;;;;;5002875;28;20211;-68
2022/05/29 04:14:01;;;;;;;0.80;0.70;;;;;;;;;;5004453;28;20210;-67
2022/05/29 04:16:30;;;;;;;1.37;0.70;;;;;;;;;;5004163;28;20247;-66
2022/05/29 04:19:01;;;;;;;1.40;0.80;;;;;;;;;;5000101;28;20645;-66
2022/05/29 04:21:34;;;;;;;1.33;0.73;;;;;;;;;;5003517;28;20195;-66
2022/05/29 04:24:02;;;;;;;1.23;0.73;;;;;;;;;;5001797;28;20218;-66
2022/05/29 04:26:29;;;;;;;2.00;0.60;;;;;;;;;;5005775;28;20661;-66
2022/05/29 04:28:56;;;;;;;1.40;0.70;;;;;;;;;;5003447;28;20227;-67
2022/05/29 04:31:23;;;;;;;1.67;0.90;;;;;;;;;;5003926;28;20651;-68
2022/05/29 04:33:50;;;;;;;2.50;0.80;;;;;;;;;;5001027;28;20711;-67
2022/05/29 04:36:18;;;;;;;0.93;0.67;;;;;;;;;;5000806;28;20227;-65
2022/05/29 04:38:45;;;;;;;2.30;0.87;;;;;;;;;;5003880;28;20203;-65
2022/05/29 04:41:12;;;;;;;1.07;0.83;;;;;;;;;;5002298;28;20239;-66
2022/05/29 04:43:40;;;;;;;1.73;0.83;;;;;;;;;;5000444;28;20250;-67
2022/05/29 04:46:07;;;;;;;1.87;0.93;;;;;;;;;;5008101;28;20199;-66
2022/05/29 04:48:34;;;;;;;3.30;0.80;;;;;;;;;;5005347;28;20192;-67
2022/05/29 04:51:03;;;;;;;2.90;0.90;;;;;;;;;;5003035;28;20183;-66
2022/05/29 04:53:31;;;;;;;2.27;0.80;;;;;;;;;;5008775;28;20209;-66
2022/05/29 04:55:59;;;;;;;1.23;0.80;;;;;;;;;;5010859;28;20227;-67
2022/05/29 04:58:27;;;;;;;1.20;0.70;;;;;;;;;;5009433;28;20270;-68
2022/05/29 05:01:01;;;;;;;1.70;0.80;;;;;;;;;;5009760;28;20297;-67
2022/05/29 05:03:30;;;;;;;1.33;0.77;;;;;;;;;;5004046;28;20659;-67
2022/05/29 05:05:57;;;;;;;1.67;0.80;;;;;;;;;;5008354;28;20203;-67
2022/05/29 05:08:24;;;;;;;1.27;0.80;;;;;;;;;;5009317;28;20191;-67
2022/05/29 05:10:51;;;;;;;2.20;1.00;;;;;;;;;;5006490;28;20278;-68
2022/05/29 05:13:19;;;;;;;2.07;0.97;;;;;;;;;;5005749;28;20485;-68
2022/05/29 05:15:46;;;;;;;2.60;1.00;;;;;;;;;;5004318;28;20278;-67
2022/05/29 05:18:13;;;;;;;2.00;0.70;;;;;;;;;;5005313;28;20258;-67
2022/05/29 05:20:41;;;;;;;2.33;0.80;;;;;;;;;;5009241;28;20192;-68
2022/05/29 05:23:08;;;;;;;1.47;0.90;;;;;;;;;;5003052;28;20211;-68
2022/05/29 05:25:37;;;;;;;1.77;0.87;;;;;;;;;;5009473;28;20246;-68
2022/05/29 05:28:04;;;;;;;1.90;1.00;;;;;;;;;;5001165;28;20277;-67
2022/05/29 05:30:31;;;;;;;1.83;1.20;;;;;;;;;;5002079;28;20874;-68
2022/05/29 05:32:58;;;;;;;1.10;0.90;;;;;;;;;;5004277;28;20195;-68
2022/05/29 05:35:25;;;;;;;2.77;1.03;;;;;;;;;;5009485;28;20309;-68
2022/05/29 05:37:53;;;;;;;0.90;0.60;;;;;;;;;;5007240;28;20266;-68
2022/05/29 05:40:20;;;;;;;1.00;0.70;;;;;;;;;;5006367;28;20220;-68
2022/05/29 05:42:47;;;;;;;1.67;0.80;;;;;;;;;;5008993;28;20206;-68
2022/05/29 05:45:15;;;;;;;1.40;0.80;;;;;;;;;;5006848;28;20278;-68
2022/05/29 05:47:42;;;;;;;1.20;0.73;;;;;;;;;;5007765;28;20208;-68
2022/05/29 05:50:10;;;;;;;1.37;0.93;;;;;;;;;;5009230;28;20253;-68
2022/05/29 05:52:38;;;;;;;1.50;1.00;;;;;;;;;;5002794;28;20677;-68
2022/05/29 05:55:06;;;;;;;1.50;1.00;;;;;;;;;;5001344;28;20245;-67
2022/05/29 05:57:35;;;;;;;2.17;1.30;;;;;;;;;;5007904;28;20235;-67
2022/05/29 06:00:02;;;;;;;1.63;0.90;;;;;;;;;;5007236;28;20655;-67
2022/05/29 06:02:29;;;;;;;0.93;0.80;;;;;;;;;;5000947;28;20203;-68
2022/05/29 06:04:56;;;;;;;1.47;0.90;;;;;;;;;;5004108;28;20223;-67
2022/05/29 06:07:24;;;;;;;2.83;1.00;;;;;;;;;;5006397;28;20215;-67
2022/05/29 06:09:51;;;;;;;1.77;1.00;;;;;;;;;;5008566;28;20192;-67
2022/05/29 06:12:21;;;;;;;2.30;1.03;;;;;;;;;;5007437;28;20669;-67
2022/05/29 06:14:48;;;;;;;1.80;1.00;;;;;;;;;;5004562;28;20771;-66
2022/05/29 06:17:15;;;;;;;2.33;0.90;;;;;;;;;;5000633;28;20290;-66
2022/05/29 06:19:43;;;;;;;1.83;1.10;;;;;;;;;;5007869;28;20204;-66
2022/05/29 06:22:10;;;;;;;3.13;0.90;;;;;;;;;;5007187;28;20510;-66
2022/05/29 06:24:37;;;;;;;2.10;1.00;;;;;;;;;;5007360;28;20187;-66
2022/05/29 06:27:04;;;;;;;4.57;1.00;;;;;;;;;;5000743;28;20211;-66
2022/05/29 06:29:32;;;;;;;3.47;0.90;;;;;;;;;;5000220;28;20203;-66
2022/05/29 06:32:04;;;;;;;2.33;1.07;;;;;;;;;;5006043;28;20928;-66
2022/05/29 06:34:32;;;;;;;3.00;1.43;;;;;;;;;;5006904;28;20199;-66
2022/05/29 06:37:03;;;;;;;2.07;1.40;;;;;;;;;;5006600;28;20212;-66
2022/05/29 06:39:30;;;;;;;3.93;1.23;;;;;;;;;;5002781;28;20212;-66
2022/05/29 06:41:58;;;;;;;2.67;1.17;;;;;;;;;;5008116;28;20681;-66
2022/05/29 06:44:26;;;;;;;1.93;1.10;;;;;;;;;;5000842;28;20214;-66
2022/05/29 06:46:53;;;;;;;2.87;1.03;;;;;;;;;;5005626;28;20188;-67
2022/05/29 06:49:20;;;;;;;2.57;1.20;;;;;;;;;;5000254;28;20300;-68
2022/05/29 06:51:47;;;;;;;3.70;1.20;;;;;;;;;;5005874;28;20211;-67
2022/05/29 06:54:14;;;;;;;4.10;1.40;;;;;;;;;;5004176;28;20199;-66
2022/05/29 06:56:42;;;;;;;2.60;1.33;;;;;;;;;;5007016;28;20224;-66
2022/05/29 06:59:09;;;;;;;3.73;1.30;;;;;;;;;;4997121;28;20191;-66
2022/05/29 07:07:12;;;;;;;2.43;1.10;;;;;;;;;;5000928;28;20598;-66
2022/05/29 07:09:39;;;;;;;3.13;0.80;;;;;;;;;;5005529;28;20203;-66
2022/05/29 07:12:11;;;;;;;1.57;0.93;;;;;;;;;;5004820;28;20211;-67
2022/05/29 07:14:40;;;;;;;2.03;1.23;;;;;;;;;;5005996;28;20653;-66
2022/05/29 07:17:07;;;;;;;1.27;0.87;;;;;;;;;;5002852;28;20808;-68
2022/05/29 07:19:35;;;;;;;1.10;0.80;;;;;;;;;;5010510;28;20252;-68
2022/05/29 07:22:02;;;;;;;1.20;0.90;;;;;;;;;;5006270;28;20199;-67
2022/05/29 07:24:38;;;;;;;1.80;1.00;;;;;;;;;;4990210;28;20206;-67
2022/05/29 07:27:07;;;;;;;3.03;1.17;;;;;;;;;;5000685;28;20200;-67
2022/05/29 07:29:36;;;;;;;2.67;0.87;;;;;;;;;;5003293;28;20219;-67
2022/05/29 07:32:06;;;;;;;1.60;0.80;;;;;;;;;;5002741;28;20201;-68
2022/05/29 07:34:36;;;;;;;1.63;0.83;;;;;;;;;;5003256;28;20208;-68
2022/05/29 07:37:11;;;;;;;1.23;0.80;;;;;;;;;;5003980;28;20226;-68
2022/05/29 07:39:42;;;;;;;2.27;0.90;;;;;;;;;;5003116;28;20215;-68
2022/05/29 07:45:01;;;;;;;1.90;1.00;;;;;;;;;;5003212;28;20779;-69
2022/05/29 07:47:42;;;;;;;0.77;0.63;;;;;;;;;;5005712;28;20218;-67
2022/05/29 07:50:15;;;;;;;2.23;0.77;;;;;;;;;;5005456;28;20202;-67
2022/05/29 07:52:47;;;;;;;1.70;1.03;;;;;;;;;;4986830;28;20216;-67
2022/05/29 07:55:15;;;;;;;2.53;0.90;;;;;;;;;;5002861;28;20203;-68
2022/05/29 07:57:46;;;;;;;4.90;1.07;;;;;;;;;;5000105;28;20263;-67
2022/05/29 08:00:17;;;;;;;5.57;1.40;;;;;;;;;;4997724;28;20697;-64
2022/05/29 08:02:47;;;;;;;3.10;1.20;;;;;;;;;;5006346;28;20253;-64
2022/05/29 08:05:20;;;;;;;6.73;1.57;;;;;;;;;;4999554;28;20222;-64
2022/05/29 08:07:53;;;;;;;5.27;1.30;;;;;;;;;;5003280;28;20208;-64
2022/05/29 08:10:24;;;;;;;11.17;1.73;;;;;;;;;;5003702;28;20195;-64
2022/05/29 08:12:55;;;;;;;5.67;1.33;;;;;;;;;;5004936;28;20212;-65
2022/05/29 08:15:23;;;;;;;5.20;1.13;;;;;;;;;;4995909;28;20215;-64
2022/05/29 08:17:53;;;;;;;7.97;1.57;;;;;;;;;;5003143;28;20239;-64
2022/05/29 08:20:22;;;;;;;5.03;1.30;;;;;;;;;;5002887;28;20231;-64
2022/05/29 08:22:51;;;;;;;4.43;1.23;;;;;;;;;;5003918;28;20235;-65
2022/05/29 08:30:57;;;;;;;5.57;1.10;;;;;;;;;;5002300;28;20203;-65
2022/05/29 08:33:29;;;;;;;3.07;0.90;;;;;;;;;;5000713;28;20192;-66
2022/05/29 08:36:04;;;;;;;1.93;0.93;;;;;;;;;;5003048;28;20217;-65
2022/05/29 08:38:33;;;;;;;4.00;1.20;;;;;;;;;;5002918;28;20208;-63
2022/05/29 08:41:05;;;;;;;2.03;0.70;;;;;;;;;;5000105;28;20293;-61
2022/05/29 08:43:45;;;;;;;2.40;0.90;;;;;;;;;;4999597;28;20204;-64
2022/05/29 08:46:24;;;;;;;3.47;1.20;;;;;;;;;;4998526;28;20245;-66
2022/05/29 08:48:56;;;;;;;1.77;0.80;;;;;;;;;;5002366;28;20207;-65
2022/05/29 08:51:57;;;;;;;3.90;1.30;;;;;;;;;;4998396;28;20211;-65
2022/05/29 08:54:46;;;;;;;3.23;1.20;;;;;;;;;;4995695;28;20216;-66
2022/05/29 08:57:34;;;;;;;1.70;0.80;;;;;;;;;;4999913;28;20234;-64
2022/05/29 09:00:12;;;;;;;3.10;1.37;;;;;;;;;;5003585;28;20235;-64
2022/05/29 09:02:53;;;;;;;2.90;0.63;;;;;;;;;;5004245;28;20196;-64
2022/05/29 09:05:46;;;;;;;5.30;0.90;;;;;;;;;;4992754;28;20294;-64
2022/05/29 09:08:21;;;;;;;4.47;1.20;;;;;;;;;;5002751;28;20236;-64
2022/05/29 09:10:51;;;;;;;1.37;0.90;;;;;;;;;;5002410;28;20196;-65
2022/05/29 09:13:30;;;;;;;4.73;1.37;;;;;;;;;;5002701;28;20219;-64
2022/05/29 09:16:01;;;;;;;2.80;0.90;;;;;;;;;;4999147;28;20569;-64
2022/05/29 09:18:37;;;;;;;1.73;1.17;;;;;;;;;;5000346;28;20227;-64
2022/05/29 09:21:34;;;;;;;1.87;0.90;;;;;;;;;;5003024;28;20204;-64
2022/05/29 09:24:33;;;;;;;2.97;1.10;;;;;;;;;;5002308;28;20192;-64
2022/05/29 09:27:02;;;;;;;4.30;1.23;;;;;;;;;;4999905;28;20596;-65
2022/05/29 09:29:31;;;;;;;1.80;1.10;;;;;;;;;;5003409;28;20218;-65
2022/05/29 09:32:00;;;;;;;3.67;1.80;;;;;;;;;;4998088;28;20203;-67
2022/05/29 09:34:31;;;;;;;14.40;2.10;;;;;;;;;;5003846;28;20239;-66
2022/05/29 09:37:04;;;;;;;5.07;1.93;;;;;;;;;;5000153;28;20231;-65
2022/05/29 09:39:35;;;;;;;6.40;2.07;;;;;;;;;;4998797;28;20219;-66
2022/05/29 09:42:15;;;;;;;9.25;1.95;;;;;;;;;;5006578;28;20432;-64
2022/05/29 09:45:04;;;;;;;5.37;1.53;;;;;;;;;;5005842;28;20207;-64
2022/05/29 09:50:25;;;;;;;4.47;1.30;;;;;;;;;;5002500;28;20200;-66
2022/05/29 09:52:56;;;;;;;4.13;1.70;;;;;;;;;;5003349;28;20211;-66
2022/05/29 09:55:36;;;;;;;2.07;1.20;;;;;;;;;;5005546;28;20208;-66
2022/05/29 09:58:14;;;;;;;2.77;1.43;;;;;;;;;;5005704;28;20286;-66
2022/05/29 10:01:01;;;;;;;7.17;1.77;;;;;;;;;;5005882;28;20239;-66
2022/05/29 10:03:39;;;;;;;2.70;1.27;;;;;;;;;;5005439;28;20235;-66
2022/05/29 10:06:23;;;;;;;2.83;1.50;;;;;;;;;;5005730;28;20680;-67
2022/05/29 10:08:54;;;;;;;4.33;1.20;;;;;;;;;;5007365;28;20803;-66
2022/05/29 10:11:27;;;;;;;9.67;1.20;;;;;;;;;;5004582;28;20204;-66
2022/05/29 10:13:55;;;;;;;4.87;1.77;;;;;;;;;;5006184;28;20269;-66
2022/05/29 10:16:40;;;;;;;2.47;1.00;;;;;;;;;;5001712;28;20262;-65
2022/05/29 10:19:16;;;;;;;5.47;1.70;;;;;;;;;;5000345;28;20197;-66
2022/05/29 10:21:52;;;;;;;7.40;1.90;;;;;;;;;;5008205;28;20672;-66
2022/05/29 10:24:21;;;;;;;4.67;1.33;;;;;;;;;;5006760;28;20639;-67
2022/05/29 10:27:02;;;;;;;4.10;1.50;;;;;;;;;;5006514;28;20280;-67
2022/05/29 10:29:36;;;;;;;6.03;1.47;;;;;;;;;;5006246;28;20206;-67
2022/05/29 10:32:10;;;;;;;2.13;1.30;;;;;;;;;;5007274;28;20740;-67
2022/05/29 10:34:41;;;;;;;4.17;1.50;;;;;;;;;;5006097;28;20690;-66
2022/05/29 10:37:32;;;;;;;11.30;2.00;;;;;;;;;;4995877;28;20207;-66
2022/05/29 10:40:18;;;;;;;7.23;1.50;;;;;;;;;;4994481;28;20355;-66
2022/05/29 10:42:49;;;;;;;6.30;1.53;;;;;;;;;;5002698;28;20220;-66
2022/05/29 10:45:22;;;;;;;4.90;1.47;;;;;;;;;;5001420;28;20191;-66
2022/05/29 10:48:03;;;;;;;4.03;1.90;;;;;;;;;;5006634;28;20306;-66
2022/05/29 10:50:41;;;;;;;5.57;1.93;;;;;;;;;;5004072;28;20196;-67
2022/05/29 10:53:08;;;;;;;6.73;2.27;;;;;;;;;;4998096;28;20220;-66
2022/05/29 10:55:44;;;;;;;7.73;2.80;;;;;;;;;;5006700;28;20204;-66
2022/05/29 10:58:27;;;;;;;8.87;2.70;;;;;;;;;;5000494;28;20222;-66
2022/05/29 11:04:06;;;;;;;7.37;2.43;;;;;;;;;;5002270;28;20669;-65
2022/05/29 11:06:44;;;;;;;7.10;2.37;;;;;;;;;;5007690;28;20543;-65
2022/05/29 11:09:30;;;;;;;10.27;2.20;;;;;;;;;;5002137;28;20191;-65
2022/05/29 11:12:21;;;;;;;9.53;2.23;;;;;;;;;;5001178;28;20208;-65
2022/05/29 11:15:08;;;;;;;6.43;1.80;;;;;;;;;;4993920;28;20215;-66
2022/05/29 11:17:47;;;;;;;5.30;1.80;;;;;;;;;;4999635;28;20226;-65
2022/05/29 11:20:17;;;;;;;3.43;1.40;;;;;;;;;;5002795;28;20195;-65
2022/05/29 11:23:02;;;;;;;4.67;1.90;;;;;;;;;;4999121;28;20286;-65
2022/05/29 11:25:51;;;;;;;2.50;1.37;;;;;;;;;;4998059;28;20677;-65
2022/05/29 11:28:35;;;;;;;9.60;2.03;;;;;;;;;;5001525;28;20284;-65
2022/05/29 11:31:16;;;;;;;6.30;1.80;;;;;;;;;;5001994;28;20207;-65
2022/05/29 11:34:02;;;;;;;3.93;1.70;;;;;;;;;;5005481;28;20227;-64
2022/05/29 11:36:49;;;;;;;4.13;1.50;;;;;;;;;;5001760;28;20195;-65
2022/05/29 11:39:30;;;;;;;6.90;2.10;;;;;;;;;;4998748;28;20320;-64
2022/05/29 11:42:19;;;;;;;3.30;1.97;;;;;;;;;;5005693;28;20214;-64
2022/05/29 11:45:06;;;;;;;6.53;1.70;;;;;;;;;;4999763;28;20195;-64
2022/05/29 11:51:08;;;;;;;5.83;1.97;;;;;;;;;;5000635;28;20199;-65
2022/05/29 11:53:52;;;;;;;2.10;0.97;;;;;;;;;;5000645;28;20215;-64
2022/05/29 11:56:31;;;;;;;4.27;1.60;;;;;;;;;;5012309;28;20657;-65
2022/05/29 11:59:20;;;;;;;5.47;1.83;;;;;;;;;;4998846;28;20646;-65
2022/05/29 12:01:57;;;;;;;4.70;1.33;;;;;;;;;;5004545;28;20227;-65
2022/05/29 12:04:33;;;;;;;5.60;1.47;;;;;;;;;;5003056;28;20524;-65
2022/05/29 12:07:20;;;;;;;3.70;1.70;;;;;;;;;;5002079;28;20192;-65
2022/05/29 12:10:05;;;;;;;2.50;1.70;;;;;;;;;;5000081;28;20188;-65
2022/05/29 12:12:40;;;;;;;2.97;1.50;;;;;;;;;;4998039;28;20250;-65
2022/05/29 12:15:22;;;;;;;3.77;1.30;;;;;;;;;;4999662;28;20214;-65
2022/05/29 12:17:52;;;;;;;2.33;1.47;;;;;;;;;;5002973;28;20304;-65
2022/05/29 12:20:40;;;;;;;3.50;1.37;;;;;;;;;;5003454;28;20299;-65
2022/05/29 12:23:31;;;;;;;3.57;1.60;;;;;;;;;;4999514;28;20191;-65
2022/05/29 12:26:01;;;;;;;3.13;1.20;;;;;;;;;;5004819;28;20774;-65
2022/05/29 12:28:52;;;;;;;3.00;1.37;;;;;;;;;;4996846;28;20242;-66
2022/05/29 12:31:37;;;;;;;1.90;1.23;;;;;;;;;;5000352;28;20203;-66
2022/05/29 12:34:27;;;;;;;2.47;1.20;;;;;;;;;;4997337;28;20199;-66
2022/05/29 12:37:10;;;;;;;1.33;1.10;;;;;;;;;;5003628;28;20206;-65
2022/05/29 12:39:39;;;;;;;2.43;1.20;;;;;;;;;;4997003;28;20215;-66
2022/05/29 12:42:27;;;;;;;2.17;1.20;;;;;;;;;;5005989;28;20184;-66
2022/05/29 12:45:10;;;;;;;2.40;0.97;;;;;;;;;;5002718;28;20571;-66
2022/05/29 12:48:01;;;;;;;1.60;1.10;;;;;;;;;;5001658;28;20193;-66
2022/05/29 12:50:53;;;;;;;1.37;0.80;;;;;;;;;;5004536;28;20197;-65
2022/05/29 12:53:44;;;;;;;4.13;1.07;;;;;;;;;;4999928;28;20220;-65
2022/05/29 12:56:33;;;;;;;3.87;1.00;;;;;;;;;;5004313;28;20214;-66
2022/05/29 12:59:24;;;;;;;7.60;1.50;;;;;;;;;;4997110;28;20208;-65
2022/05/29 13:01:55;;;;;;;11.63;1.30;;;;;;;;;;5006088;28;20234;-65
2022/05/29 13:04:37;;;;;;;1.37;0.93;;;;;;;;;;4994815;28;20256;-65
2022/05/29 13:07:24;;;;;;;2.80;1.20;;;;;;;;;;5003648;28;20199;-66
2022/05/29 13:10:01;;;;;;;4.37;1.43;;;;;;;;;;5008414;28;20383;-66
2022/05/29 13:12:40;;;;;;;3.13;1.10;;;;;;;;;;5006383;28;20192;-66
2022/05/29 13:15:13;;;;;;;1.43;0.70;;;;;;;;;;5001168;28;20214;-66
2022/05/29 13:17:43;;;;;;;6.13;0.73;;;;;;;;;;5003797;28;20222;-65
2022/05/29 13:20:18;;;;;;;2.97;1.00;;;;;;;;;;5008506;28;20191;-65
2022/05/29 13:22:57;;;;;;;2.10;1.13;;;;;;;;;;5007247;28;20327;-66
2022/05/29 13:25:29;;;;;;;6.53;1.10;;;;;;;;;;5006187;28;20873;-66
2022/05/29 13:28:02;;;;;;;4.50;1.07;;;;;;;;;;5002592;28;20229;-65
2022/05/29 13:31:02;;;;;;;5.53;1.10;;;;;;;;;;5005751;28;20277;-66
2022/05/29 13:33:49;;;;;;;5.27;0.83;;;;;;;;;;5005088;28;20661;-66
2022/05/29 13:36:47;;;;;;;2.27;1.23;;;;;;;;;;5004992;28;20208;-65
2022/05/29 13:39:26;;;;;;;3.60;1.10;;;;;;;;;;5003785;28;20675;-65
2022/05/29 13:42:01;;;;;;;4.53;1.20;;;;;;;;;;5004303;28;20297;-65
2022/05/29 13:44:43;;;;;;;4.63;1.30;;;;;;;;;;5002271;28;20203;-65
2022/05/29 13:47:24;;;;;;;2.43;1.50;;;;;;;;;;5005888;28;20652;-65
2022/05/29 13:50:13;;;;;;;4.40;1.33;;;;;;;;;;5009047;28;20257;-66
2022/05/29 13:52:45;;;;;;;2.23;1.20;;;;;;;;;;5005507;28;20826;-65
2022/05/29 13:55:19;;;;;;;6.20;1.40;;;;;;;;;;4999023;28;20709;-66
2022/05/29 14:03:59;;;;;;;7.50;1.30;;;;;;;;;;5003758;28;20254;-65
2022/05/29 14:06:47;;;;;;;5.27;1.67;;;;;;;;;;5003355;28;20200;-65
2022/05/29 14:09:15;;;;;;;5.40;1.40;;;;;;;;;;5002122;28;20246;-65
2022/05/29 14:11:51;;;;;;;4.93;1.27;;;;;;;;;;5005716;28;20234;-65
2022/05/29 14:14:30;;;;;;;4.87;1.53;;;;;;;;;;5002914;28;20200;-65
2022/05/29 14:17:23;;;;;;;3.90;1.33;;;;;;;;;;5000867;28;20239;-66
2022/05/29 14:20:01;;;;;;;3.07;1.40;;;;;;;;;;4999678;28;20212;-66
2022/05/29 14:22:49;;;;;;;4.10;1.70;;;;;;;;;;5007413;28;20208;-66
2022/05/29 14:25:41;;;;;;;4.23;1.80;;;;;;;;;;5003080;28;20211;-65
2022/05/29 14:28:27;;;;;;;4.37;1.80;;;;;;;;;;5003378;28;20579;-65
2022/05/29 14:30:56;;;;;;;5.37;1.80;;;;;;;;;;5006234;28;20193;-66
2022/05/29 14:33:42;;;;;;;3.30;1.33;;;;;;;;;;5004077;28;20200;-66
2022/05/29 14:36:31;;;;;;;3.27;1.60;;;;;;;;;;5003136;28;20287;-65
2022/05/29 14:39:10;;;;;;;5.30;1.50;;;;;;;;;;4991213;28;20215;-65
2022/05/29 14:41:42;;;;;;;4.33;1.43;;;;;;;;;;4999714;28;20759;-65
2022/05/29 14:44:26;;;;;;;1.47;1.00;;;;;;;;;;4993722;28;20292;-65
2022/05/29 14:47:02;;;;;;;5.30;1.30;;;;;;;;;;5004728;28;20200;-65
2022/05/29 14:49:45;;;;;;;2.33;1.20;;;;;;;;;;5002218;28;20197;-65
2022/05/29 14:52:28;;;;;;;3.97;1.50;;;;;;;;;;4998828;28;20215;-65
2022/05/29 14:55:09;;;;;;;2.50;1.37;;;;;;;;;;4994821;28;20224;-65
2022/05/29 14:57:59;;;;;;;1.90;1.10;;;;;;;;;;5001444;28;20195;-65
2022/05/29 15:00:33;;;;;;;3.30;1.20;;;;;;;;;;5005992;28;20231;-65
2022/05/29 15:03:06;;;;;;;3.57;1.20;;;;;;;;;;4999643;28;20227;-65
2022/05/29 15:05:40;;;;;;;5.40;1.27;;;;;;;;;;4999241;28;20234;-65
2022/05/29 15:11:12;;;;;;;1.67;1.03;;;;;;;;;;5003556;28;20203;-65
2022/05/29 15:13:58;;;;;;;1.77;1.20;;;;;;;;;;5008459;28;20199;-66
2022/05/29 15:16:32;;;;;;;3.07;1.47;;;;;;;;;;5000726;28;20214;-64
2022/05/29 15:19:19;;;;;;;5.47;1.43;;;;;;;;;;4993396;28;20207;-65
2022/05/29 15:24:43;;;;;;;2.53;1.13;;;;;;;;;;5004172;28;20195;-65
2022/05/29 15:27:18;;;;;;;1.97;1.20;;;;;;;;;;5002970;28;20199;-65
2022/05/29 15:29:56;;;;;;;2.63;1.10;;;;;;;;;;5000527;28;20199;-65
2022/05/29 15:32:36;;;;;;;1.93;1.10;;;;;;;;;;5001431;28;20195;-66
2022/05/29 15:35:13;;;;;;;4.27;1.10;;;;;;;;;;5001892;28;20234;-66
2022/05/29 15:37:58;;;;;;;2.63;1.30;;;;;;;;;;5006664;28;20191;-65
2022/05/29 15:40:38;;;;;;;1.63;0.80;;;;;;;;;;4998557;28;20216;-66
2022/05/29 15:43:26;;;;;;;6.83;0.90;;;;;;;;;;5003389;28;20233;-65
2022/05/29 15:46:16;;;;;;;1.80;1.00;;;;;;;;;;4994739;28;20196;-65
2022/05/29 15:48:44;;;;;;;3.40;1.20;;;;;;;;;;5005756;28;20200;-66
2022/05/29 15:51:32;;;;;;;1.63;1.00;;;;;;;;;;4993941;28;20196;-65
2022/05/29 15:54:11;;;;;;;1.27;0.73;;;;;;;;;;5003231;28;20661;-66
2022/05/29 15:56:38;;;;;;;3.60;0.80;;;;;;;;;;5001882;28;20196;-65
2022/05/29 15:59:28;;;;;;;3.57;0.90;;;;;;;;;;5021247;28;20247;-66
2022/05/29 16:01:58;;;;;;;3.63;0.90;;;;;;;;;;5010266;28;20244;-66
2022/05/29 16:04:31;;;;;;;1.43;0.87;;;;;;;;;;5004047;28;20223;-65
2022/05/29 16:07:00;;;;;;;1.53;1.10;;;;;;;;;;4995442;28;20192;-65
2022/05/29 16:09:28;;;;;;;2.17;1.10;;;;;;;;;;5004330;28;20192;-65
2022/05/29 16:11:58;;;;;;;1.53;0.83;;;;;;;;;;5005855;28;20290;-65